Portada
METAR-TAF:

METAR-TAF

Aeropuertos :

Aeropuerto de Londres-Heathrow

Londres-Heathrow, Inglaterra

latitud: 51-29N, longitud: 000-27W, altitud: 24 m

Observación

El informe se hizo hace 29 minutos, a las 19:50 UTC
Viento 7 kt del sur, variando entre sur-sureste y oeste-suroeste
Temperatura 10°C
Humedad 87%
Presión 1025 hPa
Visibilidad 10 km o más

METAR: EGLL 131950Z AUTO 19007KT 160V250 9999 NCD 10/08 Q1025 NOSIG

Hora: 20:19 (20:19 UTC)

Pronóstico

El informe se hizo hace 3 horas y 16 minutos, a las 17:03 UTC
Pronóstico válido del 13 a las 18 UTC al 14 a las 24 UTC
Viento 8 kt del sur
Visibilidad 10 km o más
Escasas nubes a una altura de 3000 ft
Temporalmente
del 14 a las 20 UTC al 14 a las 24 UTC
Visibilidad: 8000 m
Cielo nuboso a una altura de 1400 ft

TAF: EGLL 131703Z 1318/1424 19008KT 9999 FEW030 TEMPO 1420/1424 8000 BKN014

Observaciones y pronósticos meteorológicos de más de 4000 aeropuertos (mensajes METAR y TAF).

Los puntos amarillos y rojos representan las estaciones disponibles.

Ponga el ratón en el punto deseado para ver el nombre de la estación.

Haga clic para ver las observaciones y los pronósticos meteorológicos.

Para cambiar el mapa : haga clic en los botones verdes con una cruz de color negro para hacer un zoom, en el botón verde con un guión para alejar o en las flechas verdes para mapas adyacentes.


METAR-TAF: